Latest Weather Observations for Hughenden

IDQ60801

Issued at 6:32 am EST Wednesday 28 September 2016 (issued every 30 minutes, with the page automatically refreshed every 10 minutes)

About weather observations | Map of weather stations | Latest weather observations for QLD | Other Formats
Station Details ID: 030022 Name: HUGHENDEN AIRPORT Lat: -20.82 Lon: 144.23 Height: 316.4 m
Data from the previous 72 hours. | See also: Recent months at Hughenden
Date/Time
EST
Temp
°C
App
Temp
°C
Dew
Point
°C
Rel
Hum
%
Delta-T
°C
Wind Press
QNH
hPa
Press
MSL
hPa
Rain since
9am
mm
Dir  Spd
km/h
Gust
km/h
Spd
kts
Gust
kts
28/06:30am 21.5 17.0 2.2 28 9.2 ESE 15 20 8 11 1013.5 1011.9 0.0
28/06:00am 21.4 16.8 1.7 27 9.3 E 15 17 8 9 1013.5 1011.9 0.0
28/05:30am 21.6 17.4 1.8 27 9.3 ESE 13 17 7 9 1012.9 1011.4 0.0
28/05:00am 21.4 17.3 2.2 28 9.1 E 13 17 7 9 1012.9 1011.4 0.0
28/04:30am 21.5 16.7 2.7 29 9.0 E 17 20 9 11 1012.6 1011.1 0.0
28/04:00am 19.9 18.8 5.2 38 7.3 CALM 0 0 0 0 1012.9 1011.4 0.0
28/03:30am 19.9 16.8 3.6 34 7.9 ESE 9 11 5 6 1012.6 1011.1 0.0
28/03:00am 19.4 16.7 3.6 35 7.6 SSE 7 11 4 6 1012.6 1011.1 0.0
28/02:30am 20.0 17.1 2.8 32 8.2 SSE 7 11 4 6 1012.6 1011.1 0.0
28/02:00am 19.7 15.7 3.0 33 7.9 SE 13 13 7 7 1012.7 1011.2 0.0
28/01:30am 20.5 17.7 3.3 32 8.3 SE 7 9 4 5 1013.0 1011.5 0.0
28/01:00am 21.8 18.5 2.5 28 9.2 SSE 9 13 5 7 1013.6 1012.0 0.0
28/12:30am 22.1 20.6 2.8 28 9.3 CALM 0 0 0 0 1013.9 1012.3 0.0
28/12:00am 22.7 19.7 2.2 26 9.8 NNE 7 11 4 6 1014.3 1012.7 0.0
 
Date/Time
EST
Temp
°C
App
Temp
°C
Dew
Point
°C
Rel
Hum
%
Delta-T
°C
Wind Press
QNH
hPa
Press
MSL
hPa
Rain since
9am
mm
Dir  Spd
km/h
Gust
km/h
Spd
kts
Gust
kts
27/11:30pm 22.8 20.6 1.2 24 10.2 WSW 2 7 1 4 1015.0 1013.5 0.0
27/11:00pm 23.1 20.0 1.5 24 10.2 ENE 7 17 4 9 1014.4 1012.8 0.0
27/10:30pm 23.4 21.1 0.5 22 10.7 SE 2 11 1 6 1015.6 1014.1 0.0
27/10:00pm 23.8 20.5 -1.2 19 11.3 E 6 7 3 4 1015.2 1013.7 0.0
27/09:30pm 24.0 19.7 -1.8 18 11.6 ESE 11 15 6 8 1015.4 1013.9 0.0
27/09:00pm 24.2 18.9 -3.2 16 12.0 SSE 15 17 8 9 1015.8 1014.3 0.0
27/08:30pm 24.9 19.9 -4.4 14 12.6 SSE 13 17 7 9 1015.8 1014.3 0.0
27/08:00pm 24.9 20.0 -3.5 15 12.4 S 13 15 7 8 1015.7 1014.2 0.0
27/07:30pm 25.6 20.7 -3.8 14 12.9 SSE 13 17 7 9 1015.7 1014.2 0.0
27/07:00pm 26.1 21.1 -4.4 13 13.3 SSE 13 19 7 10 1015.3 1013.8 0.0
27/06:30pm 26.6 20.2 -5.1 12 13.7 SSE 20 28 11 15 1015.0 1013.5 0.0
27/06:00pm 27.2 20.9 -3.6 13 13.7 SSE 20 30 11 16 1014.8 1013.2 0.0
27/05:30pm 27.9 20.7 -5.2 11 14.4 SSE 24 33 13 18 1014.4 1012.8 0.0
27/05:00pm 28.8 21.9 -2.3 13 14.4 SE 24 28 13 15 1013.9 1012.3 0.0
27/04:30pm 28.9 21.9 -0.3 15 14.0 SSE 26 32 14 17 1013.9 1012.3 0.0
27/04:00pm 29.3 22.8 0.0 15 14.1 SSE 24 37 13 20 1013.6 1012.0 0.0
27/03:30pm 30.8 24.8 1.2 15 14.7 SSE 22 35 12 19 1013.3 1011.8 0.0
27/03:00pm 31.3 24.6 1.6 15 14.9 S 26 35 14 19 1013.5 1011.9 0.0
27/02:30pm 31.2 24.7 0.6 14 15.1 SSE 24 35 13 19 1013.7 1012.1 0.0
27/02:00pm 30.9 25.5 2.2 16 14.5 SSE 20 30 11 16 1014.0 1012.4 0.0
27/01:30pm 30.6 24.7 1.9 16 14.4 SE 22 37 12 20 1014.5 1012.9 0.0
27/01:00pm 30.4 25.1 1.8 16 14.3 SE 19 28 10 15 1015.0 1013.5 0.0
27/12:30pm 29.8 24.1 0.4 15 14.3 SE 20 30 11 16 1015.6 1014.1 0.0
27/12:00pm 30.0 24.6 -1.4 13 14.8 SE 17 26 9 14 1016.0 1014.5 0.0
27/11:30am 28.7 23.3 1.3 17 13.5 SE 19 28 10 15 1016.5 1015.0 0.0
27/11:00am 28.8 24.2 3.6 20 12.9 S 17 26 9 14 1017.0 1015.4 0.0
27/10:30am 26.9 22.5 2.7 21 12.0 SSE 15 26 8 14 1017.2 1015.6 0.0
27/10:00am 25.9 20.8 3.2 23 11.3 E 19 24 10 13 1017.6 1016.0 0.0
27/09:30am 25.1 20.6 4.3 26 10.5 ESE 17 24 9 13 1017.5 1015.9 0.0
27/09:00am 23.7 18.6 4.1 28 9.8 ESE 20 26 11 14 1017.7 1016.1 0.0
27/08:30am 22.3 17.5 4.4 31 8.9 E 19 24 10 13 1017.7 1016.1 0.0
27/08:00am 21.2 17.5 4.3 33 8.3 ESE 13 17 7 9 1017.5 1015.9 0.0
27/07:30am 19.5 17.4 5.9 41 6.8 E 6 7 3 4 1017.3 1015.7 0.0
27/07:00am 17.7 14.9 5.3 44 6.1 E 9 13 5 7 1016.6 1015.1 0.0
27/06:30am 15.2 11.6 4.9 50 4.9 NE 13 17 7 9 1016.3 1014.8 0.0
27/06:00am 13.7 10.4 4.6 54 4.3 NE 11 13 6 7 1016.2 1014.7 0.0
27/05:30am 13.0 9.8 5.2 59 3.7 NE 11 13 6 7 1015.8 1014.3 0.0
27/05:00am 12.2 11.2 5.4 63 3.2 CALM 0 0 0 0 1015.4 1013.9 0.0
27/04:30am 12.6 9.7 4.8 59 3.6 NE 9 13 5 7 1014.8 1013.2 0.0
27/04:00am 13.1 10.8 5.5 60 3.6 E 7 11 4 6 1014.7 1013.1 0.0
27/03:30am 13.1 10.3 5.3 59 3.7 SE 9 11 5 6 1014.6 1013.0 0.0
27/03:00am 12.8 10.4 4.5 57 3.9 ENE 6 9 3 5 1014.6 1013.0 0.0
27/02:30am 13.3 10.3 4.2 54 4.2 E 9 11 5 6 1014.4 1012.8 0.0
27/02:00am 13.0 10.6 4.2 55 4.1 SE 6 7 3 4 1015.1 1013.6 0.0
27/01:30am 14.9 12.2 3.7 47 5.2 ENE 7 9 4 5 1015.1 1013.6 0.0
27/01:00am 14.9 12.0 2.8 44 5.5 ENE 7 9 4 5 1015.2 1013.7 0.0
27/12:30am 16.8 13.2 0.5 33 7.2 SSE 9 11 5 6 1015.4 1013.9 0.0
27/12:00am 17.2 13.6 0.8 33 7.3 SE 9 11 5 6 1015.6 1014.1 0.0
 
Date/Time
EST
Temp
°C
App
Temp
°C
Dew
Point
°C
Rel
Hum
%
Delta-T
°C
Wind Press
QNH
hPa
Press
MSL
hPa
Rain since
9am
mm
Dir  Spd
km/h
Gust
km/h
Spd
kts
Gust
kts
26/11:30pm 17.1 13.6 1.5 35 7.1 SE 9 13 5 7 1015.7 1014.2 0.0
26/11:00pm 16.7 12.9 1.6 36 6.8 SSE 11 13 6 7 1015.7 1014.2 0.0
26/10:30pm 16.5 13.3 3.2 41 6.2 SSE 9 13 5 7 1015.5 1014.0 0.0
26/10:00pm 17.5 14.2 2.7 37 6.9 SE 9 11 5 6 1015.2 1013.7 0.0
26/09:30pm 17.7 14.3 1.7 34 7.3 SE 9 11 5 6 1015.3 1013.8 0.0
26/09:00pm 20.0 16.8 1.0 28 8.7 SE 7 9 4 5 1015.3 1013.8 0.0
26/08:30pm 21.4 17.3 0.0 24 9.7 SE 11 13 6 7 1015.1 1013.6 0.0
26/08:00pm 22.6 18.5 -0.2 22 10.4 SSE 11 13 6 7 1014.8 1013.2 0.0
26/07:30pm 23.3 19.2 -0.2 21 10.8 SSE 11 13 6 7 1014.6 1013.0 0.0
26/07:00pm 25.0 20.9 -0.2 19 11.7 SSE 11 13 6 7 1014.0 1012.4 0.0
26/06:30pm 26.9 22.2 -1.9 15 13.2 SSE 13 19 7 10 1013.7 1012.1 0.0
26/06:00pm 28.8 23.7 -2.3 13 14.4 S 15 20 8 11 1013.2 1011.7 0.0
26/05:30pm 30.0 24.2 -1.4 13 14.9 S 19 26 10 14 1012.8 1011.3 0.0
26/05:00pm 30.7 25.0 -0.8 13 15.1 SSW 19 28 10 15 1012.5 1011.0 0.0
26/04:30pm 31.2 25.3 -0.5 13 15.4 SW 20 26 11 14 1012.2 1010.7 0.0
26/04:00pm 31.7 26.1 1.0 14 15.3 SW 20 32 11 17 1012.1 1010.6 0.0
26/03:30pm 31.7 26.9 2.8 16 14.8 SW 17 32 9 17 1012.3 1010.8 0.0
26/03:00pm 31.6 26.8 2.7 16 14.8 SSW 17 26 9 14 1012.5 1011.0 0.0
26/02:30pm 31.4 26.9 4.2 18 14.3 SW 17 30 9 16 1012.7 1011.2 0.0
26/02:00pm 30.9 26.2 3.0 17 14.3 S 17 30 9 16 1012.9 1011.4 0.0
26/01:30pm 30.0 25.1 2.3 17 14.0 SW 17 22 9 12 1013.2 1011.7 0.0
26/01:00pm 30.2 25.5 3.3 18 13.8 S 17 28 9 15 1013.8 1012.2 0.0
26/12:30pm 29.5 24.6 4.2 20 13.1 S 19 30 10 16 1014.4 1012.8 0.0
26/12:00pm 28.1 23.5 3.7 21 12.4 S 17 26 9 14 1015.0 1013.5 0.0
26/11:30am 27.2 22.6 3.7 22 11.9 SSE 17 24 9 13 1015.6 1014.1 0.0
26/11:00am 26.7 22.9 3.9 23 11.6 SSE 13 20 7 11 1016.1 1014.6 0.0
26/10:30am 25.8 21.8 3.1 23 11.3 SE 13 24 7 13 1016.3 1014.8 0.0
26/10:00am 25.5 22.1 4.0 25 10.8 ESE 11 20 6 11 1016.6 1015.1 0.0
26/09:30am 24.7 21.0 4.5 27 10.2 SE 13 20 7 11 1017.1 1015.5 0.0
26/09:00am 24.1 19.8 3.4 26 10.2 SE 15 20 8 11 1017.1 1015.5 0.0
26/08:30am 23.5 20.3 4.9 30 9.4 SE 11 17 6 9 1017.1 1015.5 0.0
26/08:00am 21.7 18.9 6.8 38 7.7 SE 11 15 6 8 1016.9 1015.3 0.0
26/07:30am 19.4 18.2 10.4 56 4.9 SE 7 9 4 5 1016.3 1014.8 0.0
26/07:00am 16.6 14.9 9.8 64 3.6 SSE 9 11 5 6 1016.0 1014.5 0.0
26/06:30am 14.1 11.9 9.5 74 2.4 S 11 13 6 7 1015.7 1014.2 0.0
26/06:00am 13.6 12.1 9.3 75 2.2 SE 7 9 4 5 1015.2 1013.7 0.0
26/05:30am 13.9 12.7 9.5 75 2.3 ESE 6 6 3 3 1014.8 1013.2 0.0
26/05:00am 14.5 13.1 9.5 72 2.6 SSE 7 9 4 5 1014.5 1012.9 0.0
26/04:30am 14.5 13.2 9.3 71 2.7 S 6 9 3 5 1014.2 1012.6 0.0
26/04:00am 15.0 13.6 9.4 69 2.9 SSE 7 9 4 5 1014.0 1012.4 0.0
26/03:30am 15.4 15.1 10.0 70 2.9 S 2 7 1 4 1013.9 1012.3 0.0
26/03:00am 16.2 16.1 9.6 65 3.5 CALM 0 0 0 0 1013.9 1012.3 0.0
26/02:30am 17.8 16.6 9.7 59 4.3 NNE 6 7 3 4 1013.9 1012.3 0.0
26/02:00am 17.6 17.6 9.8 60 4.2 CALM 0 0 0 0 1013.8 1012.2 0.0
26/01:30am 18.0 17.1 9.4 57 4.6 S 4 6 2 3 1014.0 1012.4 0.0
26/01:00am 19.3 17.7 8.6 50 5.7 S 7 9 4 5 1014.2 1012.6 0.0
26/12:30am 20.3 18.3 8.6 47 6.2 SE 9 13 5 7 1014.3 1012.7 0.0
26/12:00am 20.1 18.4 8.4 47 6.2 ENE 7 9 4 5 1014.5 1012.9 0.0
 
Date/Time
EST
Temp
°C
App
Temp
°C
Dew
Point
°C
Rel
Hum
%
Delta-T
°C
Wind Press
QNH
hPa
Press
MSL
hPa
Rain since
9am
mm
Dir  Spd
km/h
Gust
km/h
Spd
kts
Gust
kts
25/11:30pm 21.2 18.6 7.8 42 7.1 S 11 17 6 9 1014.6 1013.0 0.0
25/11:00pm 21.8 18.6 8.3 42 7.2 S 15 20 8 11 1014.6 1013.0 0.0
25/10:30pm 22.6 19.0 8.3 40 7.7 SSE 17 30 9 16 1014.9 1013.4 0.0
25/10:00pm 23.6 19.4 8.1 37 8.3 S 20 30 11 16 1014.6 1013.0 0.0
25/09:30pm 24.3 20.2 8.7 37 8.5 S 20 30 11 16 1014.4 1012.8 0.0
25/09:00pm 25.1 19.9 9.0 36 8.9 S 26 32 14 17 1014.1 1012.5 0.0
25/08:30pm 26.1 21.7 9.0 34 9.5 SSE 22 32 12 17 1013.8 1012.2 0.0
25/08:00pm 26.8 22.6 9.6 34 9.6 S 22 32 12 17 1013.2 1011.7 0.0
25/07:30pm 27.5 22.9 9.8 33 10.0 S 24 33 13 18 1012.8 1011.3 0.0
25/07:00pm 27.8 24.9 9.6 32 10.3 SSE 15 20 8 11 1012.5 1011.0 0.0
25/06:30pm 28.9 25.1 9.1 29 11.1 S 19 26 10 14 1011.9 1010.3 0.0
25/06:00pm 29.2 25.3 8.8 28 11.4 S 19 24 10 13 1011.5 1009.9 0.0
25/05:30pm 30.0 26.2 9.0 27 11.8 S 19 26 10 14 1011.0 1009.4 0.0
25/05:00pm 31.3 27.5 8.9 25 12.7 S 19 35 10 19 1010.7 1009.1 0.0
25/04:30pm 31.9 27.9 8.2 23 13.3 SSW 19 28 10 15 1010.5 1008.9 0.0
25/04:00pm 32.0 28.0 8.3 23 13.4 SSW 19 30 10 16 1010.4 1008.8 0.0
25/03:30pm 31.7 27.4 8.0 23 13.3 SW 20 35 11 19 1010.3 1008.7 0.0
25/03:00pm 31.9 27.9 8.2 23 13.3 S 19 30 10 16 1010.2 1008.6 0.0
25/02:30pm 32.1 27.6 7.0 21 13.8 SW 20 35 11 19 1010.4 1008.8 0.0
25/02:00pm 32.4 27.4 6.6 20 14.2 SW 22 35 12 19 1010.8 1009.2 0.0
25/01:30pm 32.2 29.4 8.4 23 13.4 SSW 13 20 7 11 1011.1 1009.5 0.0
25/01:00pm 31.6 27.6 6.6 21 13.7 SW 17 26 9 14 1011.6 1010.0 0.0
25/12:30pm 31.2 27.5 6.3 21 13.5 SSW 15 20 8 11 1011.9 1010.3 0.0
25/12:00pm 30.9 27.3 6.7 22 13.2 S 15 24 8 13 1012.4 1010.9 0.0
25/11:30am 30.5 27.0 7.0 23 12.9 SSW 15 28 8 15 1012.8 1011.3 0.0
25/11:00am 29.6 25.7 6.9 24 12.3 S 17 24 9 13 1013.0 1011.5 0.0
25/10:30am 28.4 24.7 8.1 28 11.2 S 17 20 9 11 1013.3 1011.8 0.0
25/10:00am 27.9 24.3 8.2 29 10.8 S 17 20 9 11 1013.6 1012.0 0.0
25/09:30am 27.2 23.2 8.1 30 10.5 S 19 22 10 12 1013.7 1012.1 0.0
25/09:00am 26.6 23.2 7.6 30 10.3 S 15 19 8 10 1013.5 1011.9 0.0
25/08:30am 24.2 21.5 7.4 34 8.9 S 11 15 6 8 1013.5 1011.9 0.0
25/08:00am 22.5 20.0 6.7 36 8.2 SE 9 15 5 8 1013.2 1011.7 0.0
25/07:30am 21.0 18.2 6.9 40 7.3 SSE 11 13 6 7 1012.9 1011.4 0.0
25/07:00am 18.3 16.6 8.3 52 5.2 SW 7 9 4 5 1012.8 1011.3 0.0

Other Formats:

Comma delimited format used in spreadsheet applications
http://www.bom.gov.au/fwo/IDQ60801/IDQ60801.94343.axf

JavaScript Object Notation format (JSON) in row-major order
http://www.bom.gov.au/fwo/IDQ60801/IDQ60801.94343.json